Archival Weather

Westchester County

White Plains, New York (KHPN)

Report from: Friday, February 23, 2024 10:56 AM EST
Current time: Wednesday, May 29, 2024 8:20 PM EDT

Current weather – Weather history – Daily summaries
Weather forecast

Present weatherMist
Temperature5.6°C (42.1°F)
Wind chill3.2°C (37.7°F)
Dew point3.9°C (39.0°F)
Winds 6 kts (3.1 m/s, 6.9 mph) Northwest (310°)
Visibility2.5 mi. (4 km)
Clouds Ceiling: Broken clouds 4,600 ft. (1,402 m)
Altimeter29.49 in.Hg (999 mB)
PrecipitiationTrace
Precip. events Drizzle ended 3:52 PM
Relative humidity89 %
Density altitude-532 ft. (-162 m)
Sea-level pressure99.9 kPa (999 mB, 29.50 in.Hg)
Remarks Automated weather observing station with precipitation discriminator
Flight conditions Instrument Meteorological Conditions
Raw dataKHPN 231556Z 31006KT 2 1/2SM BR BKN046 06/04 A2949 RMK AO2 DZE52 SLP991 P0000 T00560039
An error has occurred. This application may no longer respond until reloaded. Reload 🗙